createdAt,value
2022-08-25T00:02:14.789Z,3.75
2022-08-25T00:08:01.687Z,2.77
2022-08-25T00:11:00.356Z,2.95
2022-08-25T00:13:54.426Z,2.92
2022-08-25T00:16:46.000Z,3.25
2022-08-25T00:25:27.272Z,3.00
2022-08-25T00:28:20.273Z,3.00
2022-08-25T00:31:16.326Z,2.72
2022-08-25T00:34:08.087Z,2.67
2022-08-25T00:36:59.348Z,2.77
2022-08-25T00:45:11.624Z,2.60
2022-08-25T00:48:03.837Z,2.92
2022-08-25T00:50:55.440Z,2.77
2022-08-25T00:56:28.556Z,2.98
2022-08-25T01:02:05.141Z,3.00
2022-08-25T01:04:58.985Z,2.60
2022-08-25T01:07:50.427Z,2.65
2022-08-25T01:13:24.955Z,2.95
2022-08-25T01:16:18.372Z,2.55
2022-08-25T01:19:15.549Z,2.75
2022-08-25T01:22:06.361Z,2.45
2022-08-25T01:25:01.956Z,2.65
2022-08-25T01:27:54.064Z,2.80
2022-08-25T01:30:46.175Z,2.80
2022-08-25T01:33:37.475Z,2.60
2022-08-25T01:36:30.676Z,2.60
2022-08-25T01:39:22.079Z,2.70
2022-08-25T01:45:00.045Z,2.77
2022-08-25T01:50:31.725Z,2.80
2022-08-25T01:53:26.418Z,3.00
2022-08-25T01:56:19.457Z,2.83
2022-08-25T01:59:26.390Z,2.80
2022-08-25T02:02:18.443Z,2.58
2022-08-25T02:07:56.073Z,2.80
2022-08-25T02:10:47.966Z,2.85
2022-08-25T02:16:21.855Z,2.72
2022-08-25T02:19:14.282Z,2.80
2022-08-25T02:22:06.527Z,2.52
2022-08-25T02:27:37.507Z,2.85
2022-08-25T02:30:29.921Z,2.75
2022-08-25T02:33:21.500Z,2.77
2022-08-25T02:36:13.131Z,3.00
2022-08-25T02:39:05.222Z,2.67
2022-08-25T02:44:36.859Z,2.67
2022-08-25T02:50:13.833Z,2.80
2022-08-25T02:53:05.896Z,2.60
2022-08-25T02:55:58.014Z,2.65
2022-08-25T02:58:49.924Z,2.83
2022-08-25T03:01:41.390Z,2.65
2022-08-25T03:04:32.767Z,2.70
2022-08-25T03:10:06.993Z,3.08
2022-08-25T03:12:57.981Z,2.90
2022-08-25T03:15:49.429Z,2.83
2022-08-25T03:18:42.309Z,2.70
2022-08-25T03:21:35.986Z,3.20
2022-08-25T03:27:07.653Z,2.83
2022-08-25T03:29:58.692Z,3.20
2022-08-25T03:35:29.224Z,3.27
2022-08-25T03:41:02.169Z,2.95
2022-08-25T03:43:53.525Z,2.87
2022-08-25T03:46:48.321Z,3.25
2022-08-25T03:49:39.793Z,3.30
2022-08-25T03:55:13.644Z,3.42
2022-08-25T03:58:04.986Z,2.95
2022-08-25T04:00:57.955Z,2.98
2022-08-25T04:03:49.585Z,3.22
2022-08-25T04:06:42.307Z,3.08
2022-08-25T04:09:36.889Z,2.80
2022-08-25T04:15:07.501Z,2.92
2022-08-25T04:20:39.843Z,3.20
2022-08-25T04:23:39.510Z,3.10
2022-08-25T04:26:34.669Z,3.20
2022-08-25T04:29:27.519Z,2.80
2022-08-25T04:32:26.926Z,3.20
2022-08-25T04:35:19.624Z,2.95
2022-08-25T04:38:11.015Z,3.30
2022-08-25T04:41:04.589Z,3.50
2022-08-25T04:43:58.115Z,3.37
2022-08-25T04:46:50.266Z,3.58
2022-08-25T04:49:41.461Z,3.60
2022-08-25T04:52:32.863Z,2.87
2022-08-25T04:55:24.546Z,3.02
2022-08-25T04:58:23.008Z,3.47
2022-08-25T05:01:17.454Z,3.58
2022-08-25T05:04:15.793Z,3.52
2022-08-25T05:07:06.789Z,3.45
2022-08-25T05:12:36.289Z,3.58
2022-08-25T05:15:47.341Z,3.50
2022-08-25T05:18:41.099Z,3.42
2022-08-25T05:21:33.540Z,3.75
2022-08-25T05:24:24.894Z,3.52
2022-08-25T05:29:59.802Z,3.52
2022-08-25T05:32:51.136Z,3.12
2022-08-25T05:38:23.325Z,3.20
2022-08-25T05:41:16.682Z,3.60
2022-08-25T05:44:08.590Z,3.67
2022-08-25T05:47:01.310Z,3.45
2022-08-25T05:49:53.704Z,2.95
2022-08-25T05:52:46.846Z,3.05
2022-08-25T05:58:17.766Z,3.00
2022-08-25T06:01:28.269Z,3.00
2022-08-25T06:04:21.645Z,2.90
2022-08-25T06:10:04.496Z,3.62
2022-08-25T06:12:59.576Z,3.10
2022-08-25T06:16:01.413Z,3.72
2022-08-25T06:18:55.953Z,3.85
2022-08-25T06:21:47.657Z,3.40
2022-08-25T06:24:39.925Z,3.02
2022-08-25T06:30:15.187Z,3.42
2022-08-25T06:33:08.597Z,3.22
2022-08-25T06:36:00.887Z,3.50
2022-08-25T06:38:53.823Z,3.27
2022-08-25T06:41:52.058Z,3.10
2022-08-25T06:47:29.526Z,3.10
2022-08-25T06:50:21.858Z,3.08
2022-08-25T06:53:14.319Z,3.58
2022-08-25T06:56:10.260Z,4.87
2022-08-25T06:59:03.835Z,3.40
2022-08-25T07:01:55.574Z,3.77
2022-08-25T07:07:27.150Z,3.20
2022-08-25T07:10:21.266Z,3.27
2022-08-25T07:15:57.834Z,3.30
2022-08-25T07:18:50.796Z,3.27
2022-08-25T07:21:45.931Z,2.98
2022-08-25T07:24:38.106Z,3.17
2022-08-25T07:27:32.734Z,3.37
2022-08-25T07:30:24.829Z,3.40
2022-08-25T07:33:16.222Z,3.35
2022-08-25T07:39:04.230Z,3.55
2022-08-25T07:41:55.918Z,3.98
2022-08-25T07:44:47.527Z,3.58
2022-08-25T07:47:39.644Z,3.62
2022-08-25T07:53:12.016Z,3.70
2022-08-25T07:58:50.777Z,3.70
2022-08-25T08:01:43.970Z,3.45
2022-08-25T08:04:37.289Z,3.50
2022-08-25T08:07:42.064Z,3.42
2022-08-25T08:13:26.787Z,3.40
2022-08-25T08:16:22.081Z,3.40
2022-08-25T08:19:24.735Z,3.42
2022-08-25T08:22:17.197Z,3.08
2022-08-25T08:25:21.591Z,3.60
2022-08-25T08:28:25.770Z,3.30
2022-08-25T08:31:18.843Z,4.03
2022-08-25T08:34:10.258Z,3.70
2022-08-25T08:37:06.944Z,3.35
2022-08-25T08:40:03.442Z,2.90
2022-08-25T08:45:54.498Z,3.37
2022-08-25T08:48:55.938Z,3.45
2022-08-25T08:51:51.440Z,3.87
2022-08-25T08:54:44.830Z,3.27
2022-08-25T09:00:18.091Z,4.35
2022-08-25T09:03:27.255Z,3.70
2022-08-25T09:06:22.448Z,3.87
2022-08-25T09:09:20.110Z,3.72
2022-08-25T09:12:18.595Z,3.98
2022-08-25T09:15:15.726Z,3.55
2022-08-25T09:21:01.586Z,3.30
2022-08-25T09:24:02.510Z,3.40
2022-08-25T09:27:00.758Z,3.37
2022-08-25T09:30:00.054Z,3.90
2022-08-25T09:35:32.180Z,3.10
2022-08-25T09:38:24.214Z,3.60
2022-08-25T09:41:17.542Z,3.52
2022-08-25T09:44:21.210Z,3.50
2022-08-25T09:47:30.582Z,3.70
2022-08-25T09:50:24.943Z,3.25
2022-08-25T09:53:23.462Z,4.33
2022-08-25T09:56:30.409Z,3.75
2022-08-25T09:59:30.796Z,3.50
2022-08-25T10:02:25.795Z,3.50
2022-08-25T10:05:27.681Z,3.25
2022-08-25T10:11:13.349Z,3.40
2022-08-25T10:19:54.727Z,3.37
2022-08-25T10:22:50.392Z,3.70
2022-08-25T10:28:30.628Z,3.30
2022-08-25T10:31:25.621Z,3.22
2022-08-25T10:34:26.098Z,3.12
2022-08-25T10:37:22.840Z,3.50
2022-08-25T10:40:19.285Z,3.60
2022-08-25T10:45:53.086Z,3.60
2022-08-25T10:49:08.257Z,3.52
2022-08-25T10:52:06.642Z,3.33
2022-08-25T10:55:02.097Z,3.62
2022-08-25T10:57:57.027Z,3.27
2022-08-25T11:00:52.313Z,3.70
2022-08-25T11:03:50.124Z,3.42
2022-08-25T11:09:26.967Z,3.90
2022-08-25T11:12:21.995Z,3.65
2022-08-25T11:15:16.807Z,3.50
2022-08-25T11:18:14.684Z,3.08
2022-08-25T11:21:15.075Z,2.15
2022-08-25T11:24:32.113Z,2.33
2022-08-25T11:30:14.911Z,1.60
2022-08-25T11:33:20.709Z,1.40
2022-08-25T11:39:00.325Z,1.50
2022-08-25T11:41:59.857Z,2.58
2022-08-25T11:44:57.045Z,1.60
2022-08-25T11:50:41.024Z,1.80
2022-08-25T11:53:34.380Z,1.65
2022-08-25T11:56:37.977Z,1.45
2022-08-25T12:00:07.258Z,1.60
2022-08-25T12:03:01.515Z,1.55
2022-08-25T12:06:16.136Z,1.42
2022-08-25T12:12:31.856Z,1.52
2022-08-25T12:15:25.722Z,1.60
2022-08-25T12:18:21.995Z,1.10
2022-08-25T12:21:16.606Z,1.40
2022-08-25T12:24:15.895Z,1.27
2022-08-25T12:27:17.693Z,1.37
2022-08-25T12:36:01.068Z,1.30
2022-08-25T12:38:58.610Z,1.10
2022-08-25T12:41:59.703Z,0.90
2022-08-25T12:44:53.474Z,1.02
2022-08-25T12:50:50.138Z,0.95
2022-08-25T12:53:42.925Z,1.10
2022-08-25T12:56:39.488Z,0.80
2022-08-25T13:03:07.153Z,0.78
2022-08-25T13:06:13.871Z,0.85
2022-08-25T13:09:32.147Z,0.90
2022-08-25T13:15:44.591Z,1.02
2022-08-25T13:18:37.957Z,0.90
2022-08-25T13:21:35.142Z,1.10
2022-08-25T13:24:30.598Z,1.10
2022-08-25T13:30:11.489Z,1.00
2022-08-25T13:33:21.765Z,0.98
2022-08-25T13:36:33.789Z,0.98
2022-08-25T13:39:45.952Z,1.05
2022-08-25T13:42:32.334Z,1.32
2022-08-25T13:45:26.007Z,0.95
2022-08-25T13:48:22.473Z,1.10
2022-08-25T13:51:23.228Z,1.00
2022-08-25T13:54:24.039Z,0.88
2022-08-25T13:57:19.656Z,0.95
2022-08-25T14:00:14.211Z,1.00
2022-08-25T14:05:46.242Z,1.02
2022-08-25T14:08:54.783Z,1.00
2022-08-25T14:11:50.086Z,1.00
2022-08-25T14:14:42.188Z,1.00
2022-08-25T14:17:39.747Z,1.00
2022-08-25T14:20:31.394Z,1.42
2022-08-25T14:23:36.620Z,1.00
2022-08-25T14:32:19.834Z,0.95
2022-08-25T14:35:13.884Z,1.22
2022-08-25T14:38:10.638Z,1.12
2022-08-25T14:41:02.474Z,1.10
2022-08-25T14:43:54.162Z,1.07
2022-08-25T14:47:02.955Z,0.90
2022-08-25T14:49:57.406Z,0.93
2022-08-25T14:52:52.149Z,1.12
2022-08-25T14:55:41.781Z,0.90
2022-08-25T14:58:34.247Z,1.15
2022-08-25T15:01:28.665Z,0.90
2022-08-25T15:04:23.611Z,1.10
2022-08-25T15:07:33.797Z,0.90
2022-08-25T15:10:25.477Z,1.00
2022-08-25T15:15:59.404Z,1.00
2022-08-25T15:18:59.278Z,1.00
2022-08-25T15:21:51.417Z,1.40
2022-08-25T15:24:43.025Z,1.10
2022-08-25T15:30:16.289Z,0.90
2022-08-25T15:33:22.762Z,1.00
2022-08-25T15:36:16.638Z,1.00
2022-08-25T15:39:10.161Z,1.10
2022-08-25T15:42:01.409Z,1.20
2022-08-25T15:50:15.369Z,1.10
2022-08-25T15:53:07.044Z,1.00
2022-08-25T15:56:04.717Z,0.90
2022-08-25T16:01:31.469Z,0.90
2022-08-25T16:04:25.541Z,0.98
2022-08-25T16:07:31.144Z,0.90
2022-08-25T16:10:22.653Z,0.95
2022-08-25T16:15:55.202Z,1.10
2022-08-25T16:18:47.309Z,1.00
2022-08-25T16:24:22.815Z,1.12
2022-08-25T16:27:25.420Z,0.88
2022-08-25T16:30:36.851Z,1.12
2022-08-25T16:33:39.082Z,1.02
2022-08-25T16:36:31.432Z,1.02
2022-08-25T16:39:23.989Z,0.90
2022-08-25T16:42:16.217Z,0.90
2022-08-25T16:45:09.413Z,1.17
2022-08-25T16:50:42.449Z,1.02
2022-08-25T16:53:51.273Z,1.10
2022-08-25T16:56:43.201Z,1.00
2022-08-25T16:59:35.125Z,1.10
2022-08-25T17:05:08.803Z,1.10
2022-08-25T17:08:27.449Z,1.10
2022-08-25T17:11:23.551Z,1.37
2022-08-25T17:14:21.887Z,1.32
2022-08-25T17:17:13.724Z,0.95
2022-08-25T17:20:08.304Z,1.27
2022-08-25T17:25:41.266Z,1.12
2022-08-25T17:28:33.591Z,1.40
2022-08-25T17:34:10.459Z,1.12
2022-08-25T17:37:01.401Z,1.12
2022-08-25T17:39:56.784Z,1.30
2022-08-25T17:42:48.667Z,1.00
2022-08-25T17:45:43.067Z,1.10
2022-08-25T17:51:15.949Z,1.30
2022-08-25T17:54:08.071Z,1.05
2022-08-25T17:56:59.358Z,1.02
2022-08-25T17:59:50.279Z,1.10
2022-08-25T18:02:43.333Z,1.00
2022-08-25T18:08:17.140Z,1.05
2022-08-25T18:11:10.209Z,1.10
2022-08-25T18:14:02.970Z,1.10
2022-08-25T18:19:33.481Z,0.93
2022-08-25T18:22:24.985Z,1.20
2022-08-25T18:25:16.951Z,1.17
2022-08-25T18:30:48.397Z,1.15
2022-08-25T18:33:42.297Z,0.95
2022-08-25T18:41:50.571Z,0.90
2022-08-25T18:44:46.078Z,0.90
2022-08-25T18:47:34.151Z,1.12
2022-08-25T18:50:26.159Z,1.00
2022-08-25T18:53:17.587Z,1.27
2022-08-25T18:56:10.324Z,1.30
2022-08-25T18:59:02.840Z,1.20
2022-08-25T19:04:35.205Z,1.10
2022-08-25T19:07:26.654Z,1.20
2022-08-25T19:12:58.884Z,1.17
2022-08-25T19:15:54.311Z,1.12
2022-08-25T19:21:24.515Z,1.70
2022-08-25T19:24:16.143Z,1.30
2022-08-25T19:27:07.528Z,1.40
2022-08-25T19:30:00.437Z,1.60
2022-08-25T19:35:34.431Z,1.50
2022-08-25T19:38:36.561Z,1.47
2022-08-25T19:44:17.773Z,1.30
2022-08-25T19:47:09.319Z,1.20
2022-08-25T19:52:43.096Z,1.20
2022-08-25T19:55:35.541Z,1.00
2022-08-25T19:58:27.918Z,1.10
2022-08-25T20:01:22.890Z,1.67
2022-08-25T20:04:21.564Z,1.10
2022-08-25T20:07:14.554Z,1.45
2022-08-25T20:12:46.456Z,1.42
2022-08-25T20:15:39.090Z,1.17
2022-08-25T20:18:31.183Z,1.30
2022-08-25T20:24:56.076Z,1.02
2022-08-25T20:27:50.495Z,1.00
2022-08-25T20:30:43.198Z,1.00
2022-08-25T20:33:34.496Z,1.00
2022-08-25T20:36:25.995Z,1.20
2022-08-25T20:39:17.526Z,1.12
2022-08-25T20:42:17.122Z,1.10
2022-08-25T20:45:12.487Z,0.95
2022-08-25T20:50:46.000Z,1.00
2022-08-25T20:53:41.716Z,0.85
2022-08-25T20:56:45.764Z,1.20
2022-08-25T20:59:41.829Z,0.90
2022-08-25T21:02:33.227Z,0.90
2022-08-25T21:10:45.843Z,0.88
2022-08-25T21:13:37.096Z,0.98
2022-08-25T21:16:30.322Z,0.90
2022-08-25T21:19:30.065Z,0.82
2022-08-25T21:22:32.535Z,1.10
2022-08-25T21:28:12.486Z,0.80
2022-08-25T21:31:08.297Z,0.80
2022-08-25T21:34:04.795Z,0.82
2022-08-25T21:36:58.273Z,0.90
2022-08-25T21:39:50.970Z,0.95
2022-08-25T21:45:22.148Z,0.90
2022-08-25T21:48:17.601Z,0.85
2022-08-25T21:51:12.035Z,1.20
2022-08-25T21:54:13.310Z,0.80
2022-08-25T21:57:07.727Z,1.05
2022-08-25T21:59:59.050Z,0.90
2022-08-25T22:02:50.443Z,1.00
2022-08-25T22:05:42.076Z,1.10
2022-08-25T22:08:37.211Z,0.90
2022-08-25T22:11:28.705Z,1.02
2022-08-25T22:14:22.181Z,1.12
2022-08-25T22:17:16.879Z,1.37
2022-08-25T22:20:08.016Z,0.95
2022-08-25T22:25:41.153Z,1.00
2022-08-25T22:31:21.019Z,1.22
2022-08-25T22:34:12.054Z,1.42
2022-08-25T22:39:59.557Z,1.10
2022-08-25T22:45:29.103Z,1.10
2022-08-25T22:48:20.808Z,1.00
2022-08-25T22:51:16.610Z,1.20
2022-08-25T22:54:16.148Z,1.47
2022-08-25T22:57:07.919Z,1.00
2022-08-25T23:00:00.070Z,1.20
2022-08-25T23:05:30.433Z,1.00
2022-08-25T23:08:39.293Z,1.40
2022-08-25T23:11:18.555Z,1.00
2022-08-25T23:14:11.196Z,1.10
2022-08-25T23:17:02.629Z,1.02
2022-08-25T23:22:33.845Z,1.15
2022-08-25T23:25:26.610Z,1.40
2022-08-25T23:28:17.880Z,1.05
2022-08-25T23:33:51.143Z,1.00
2022-08-25T23:36:43.506Z,1.22
2022-08-25T23:39:35.595Z,1.07
2022-08-25T23:42:28.449Z,1.12
2022-08-25T23:45:19.800Z,1.02
2022-08-25T23:48:11.243Z,1.00
2022-08-25T23:51:03.943Z,1.20
2022-08-25T23:53:56.491Z,1.10
2022-08-25T23:56:51.711Z,1.10
2022-08-25T23:59:41.823Z,0.93
